Skip Navigation Links
NOAA logo - Click to go to the NOAA homepage
NOAA's National Weather Service
Alaska Aviation Weather Unit
  NWS logo - Click to go to the NWS homepage
Left Navbar Graphic     23 AKDT = 07 GMT

   
NOAA is celebrating 200 years of science, service, and stewardship. Visit the NOAA 200th celebration Web site to learn more.
USA.gov is the U.S. Government's official Web portal to all Federal, state and local government Web resources and services.
Facebook
NWS on Facebook

Important Change Regarding the AAWU Web Presence

 

Over the last several months, the AAWU has been working to navigate its webpages to a nationally supported server. Security, as well as other needs, have necessitated the change.  In the process, we have made an effort to enhance the functionality of our website, as well as some of our products. As of June 20, 2017, aawu.arh.noaa.gov will be discontinued. The new AAWU web address is weather.gov/aawu. It is now live and will run in-parallel with the old site until it is discontinued. Please send any feedback or questions regarding the new webpages to nws.ar.aawu.webauthors@noaa.gov.  Thank you for your patience during this time of transition.
AAWU Home :: Display TAF Add Bookmark
SPECI PAJZ 240111Z AUTO 17016KT 5SM -RA BR FEW012 OVC020 07/05 A3001 RMK
     AO2 P0000 $=

SPECI PAJZ 240143Z AUTO 16016KT 4SM -RA BR BKN013 OVC018 07/05 A3000 RMK
     AO2 P0001 $=

METAR PAJZ 240156Z AUTO 15015KT 4SM -RA BR BKN010 BKN017 OVC023 06/05
     A2999 RMK AO2 CIG 007V013 SLP164 P0002 T00610050 $=

SPECI PAJZ 240207Z AUTO 14017KT 6SM -RA BR SCT010 BKN017 OVC037 07/05
     A2999 RMK AO2 P0000 $=

SPECI PAJZ 240219Z AUTO 15014KT 6SM -RA BR BKN010 BKN022 OVC031 07/05
     A2999 RMK AO2 P0001 $=

SPECI PAJZ 240229Z AUTO 15014KT 6SM -RA BR SCT010 BKN017 OVC031 07/06
     A2998 RMK AO2 P0001 $=

METAR PAJZ 240256Z AUTO 13011G19KT 6SM -RA BR FEW008 BKN013 OVC019 07/06
     A2997 RMK AO2 SLP155 P0001 60004 T00670056 58014 $=

SPECI PAJZ 240340Z AUTO 13013KT 5SM -RA BR BKN008 OVC013 06/06 A2995 RMK
     AO2 CIG 005V011 P0002 $=

METAR PAJZ 240356Z AUTO 13013KT 5SM -RA BR OVC010 06/06 A2994 RMK AO2
     CIG 005V014 SLP146 P0002 T00610056 $=

SPECI PAJZ 240403Z AUTO 13014KT 5SM -RA BR SCT008 BKN012 OVC028 07/06
     A2994 RMK AO2 P0000 $=

SPECI PAJZ 240424Z AUTO 13015KT 5SM -RA BR BKN006 BKN014 OVC028
 07/06 A2993 RMK AO2 CIG 005V010 P0000 $=

SPECI PAJZ 240546Z AUTO 13014KT 4SM -RA BR SCT007 BKN012 OVC021 06/06
     A2990 RMK AO2 P0004 $=

METAR PAJZ 240556Z AUTO 13014KT 5SM -RA BR SCT007 OVC012 06/06 A2989 RMK
     AO2 SLP129 P0004 60011 T00610056 10072 20061 56025 $=

SPECI PAJZ 240604Z AUTO 13014KT 5SM -RA BR OVC009 06/06 A2989 RMK AO2
     CIG 006V013 P0000 $=

METAR PAJZ 240656Z AUTO 14014KT 4SM -RA BR BKN007 OVC011 07/06 A2988 RMK
     AO2 CIG 005V010 SLP124 P0002 T00670061 $=


NOAA's National Weather Service
Alaska Aviation Weather Unit
6930 Sand Lake Road
Anchorage, AK 99502-1845
Disclaimer
Credits
Glossary
Privacy Policy
About Us
Career Opportunities
Contact AAWU Internet Services Site last modified: April, 17th 2012